Time;durP1;ratioP1;P1;durP2;ratioP2;P2;SDS_P1;SDS_P2;PMS_P1;PMS_P2;Temp;Humidity;BMP_temperature;BMP_pressure;BME280_temperature;BME280_humidity;BME280_pressure;Samples;Min_cycle;Max_cycle;Signal;HPM_P1;HPM_P2
2022/04/22 00:00:32;;;;;;;10.48;6.38;;;;;;;10.19;70.08;99161.38;5008610;28;20045;-78
2022/04/22 00:02:57;;;;;;;9.77;5.85;;;;;;;10.30;69.60;99170.31;5011794;28;20035;-78
2022/04/22 00:05:23;;;;;;;10.43;5.87;;;;;;;10.52;68.69;99167.25;5006373;28;20404;-77
2022/04/22 00:07:48;;;;;;;11.82;6.97;;;;;;;10.57;68.69;99166.44;5006766;28;20284;-79
2022/04/22 00:10:14;;;;;;;14.07;5.70;;;;;;;10.57;68.42;99169.97;5007040;28;20049;-79
2022/04/22 00:12:39;;;;;;;13.07;7.18;;;;;;;10.53;68.92;99170.81;5026464;28;20029;-78
2022/04/22 00:15:06;;;;;;;13.88;6.72;;;;;;;10.26;70.14;99167.31;5025096;28;20033;-79
2022/04/22 00:17:31;;;;;;;10.38;6.00;;;;;;;10.22;69.83;99166.25;5025198;28;20065;-77
2022/04/22 00:19:57;;;;;;;10.90;5.68;;;;;;;10.39;69.50;99177.63;5026239;28;20042;-78
2022/04/22 00:22:23;;;;;;;10.95;6.70;;;;;;;10.25;69.84;99168.44;5024712;28;20071;-79
2022/04/22 00:24:48;;;;;;;12.02;5.88;;;;;;;10.26;70.17;99164.59;5026424;28;20037;-78
2022/04/22 00:27:13;;;;;;;12.80;5.25;;;;;;;10.37;69.37;99160.75;5025966;28;20380;-79
2022/04/22 00:29:39;;;;;;;13.00;5.70;;;;;;;10.20;69.78;99161.09;5025315;28;20397;-80
2022/04/22 00:32:05;;;;;;;13.90;6.45;;;;;;;10.25;69.92;99154.81;5017700;28;20272;-79
2022/04/22 00:34:30;;;;;;;15.52;7.75;;;;;;;10.19;70.04;99162.16;5005704;28;20042;-79
2022/04/22 00:36:55;;;;;;;10.87;6.37;;;;;;;10.22;70.16;99161.63;5006320;28;20029;-78
2022/04/22 00:39:41;;;;;;;15.20;6.57;;;;;;;10.38;69.48;99154.22;5002801;28;20868;-78
2022/04/22 00:42:10;;;;;;;13.73;7.93;;;;;;;10.42;69.33;99151.75;5022964;28;20033;-79
2022/04/22 00:44:37;;;;;;;16.40;7.00;;;;;;;10.32;69.87;99155.31;5024167;28;20116;-78
2022/04/22 00:47:02;;;;;;;10.68;6.72;;;;;;;10.06;70.52;99147.22;5025364;28;20026;-78
2022/04/22 00:49:27;;;;;;;11.45;6.20;;;;;;;9.95;71.16;99151.88;5024671;28;20041;-78
2022/04/22 00:51:53;;;;;;;13.27;7.05;;;;;;;9.91;71.26;99151.63;5015191;28;20075;-78
2022/04/22 00:54:19;;;;;;;10.45;6.60;;;;;;;9.88;71.65;99149.47;5003745;28;20068;-79
2022/04/22 00:56:44;;;;;;;11.75;7.50;;;;;;;10.04;71.02;99139.34;5005205;28;20027;-78
2022/04/22 00:59:10;;;;;;;10.93;6.15;;;;;;;10.30;70.35;99138.44;5005005;28;20441;-77
2022/04/22 01:01:35;;;;;;;15.80;8.18;;;;;;;10.29;69.87;99134.09;5013512;28;20625;-76
2022/04/22 01:09:49;;;;;;;13.77;7.00;;;;;;;10.24;70.25;99115.03;5004752;28;19924;-77
2022/04/22 01:12:15;;;;;;;15.05;7.75;;;;;;;10.08;71.28;99112.38;5004050;28;20080;-77
2022/04/22 01:14:41;;;;;;;15.20;7.93;;;;;;;10.09;70.60;99107.75;5003935;28;20042;-77
2022/04/22 01:17:08;;;;;;;12.38;7.15;;;;;;;10.00;71.45;99115.66;5004987;28;20389;-78
2022/04/22 01:19:33;;;;;;;16.17;8.10;;;;;;;9.95;71.26;99102.88;5005023;28;20077;-78
2022/04/22 01:21:59;;;;;;;11.40;7.13;;;;;;;10.13;70.86;99093.28;5010497;28;20068;-78
2022/04/22 01:24:25;;;;;;;14.95;8.05;;;;;;;10.00;71.36;99088.44;5017958;28;20104;-77
2022/04/22 01:26:53;;;;;;;14.18;7.70;;;;;;;9.91;71.54;99099.88;5001089;28;20064;-78
2022/04/22 01:29:19;;;;;;;15.05;7.22;;;;;;;10.01;71.62;99099.03;5004383;28;20517;-79
2022/04/22 01:31:44;;;;;;;16.73;9.32;;;;;;;10.18;70.80;99086.19;5012799;28;20038;-78
2022/04/22 01:34:10;;;;;;;14.50;8.15;;;;;;;10.07;71.34;99099.81;5004292;28;20492;-79
2022/04/22 01:36:35;;;;;;;14.52;6.95;;;;;;;10.12;71.27;99088.94;5004265;28;20037;-79
2022/04/22 01:39:00;;;;;;;12.63;8.40;;;;;;;10.06;71.51;99100.13;5004357;28;20026;-79
2022/04/22 01:41:27;;;;;;;16.52;9.52;;;;;;;10.11;71.00;99089.22;5015843;28;20460;-79
2022/04/22 01:43:52;;;;;;;14.38;8.43;;;;;;;10.15;71.06;99101.97;5023840;28;20039;-79
2022/04/22 01:46:18;;;;;;;14.88;8.57;;;;;;;10.07;71.32;99099.03;5023896;28;20048;-79
2022/04/22 01:48:43;;;;;;;14.50;7.82;;;;;;;9.93;72.22;99103.16;5024121;28;20056;-78
2022/04/22 01:51:08;;;;;;;16.90;8.80;;;;;;;10.11;71.31;99100.91;5024298;28;20483;-79
2022/04/22 01:53:34;;;;;;;13.05;8.13;;;;;;;10.28;70.62;99095.13;5002673;28;20410;-79
2022/04/22 01:55:59;;;;;;;13.75;8.27;;;;;;;10.14;71.44;99094.91;5004749;28;20022;-79
2022/04/22 01:58:24;;;;;;;13.37;7.77;;;;;;;10.15;71.49;99099.25;5004199;28;20488;-79
2022/04/22 02:00:49;;;;;;;16.50;8.77;;;;;;;10.33;71.04;99097.00;5002353;28;20306;-79
2022/04/22 02:03:15;;;;;;;17.13;9.13;;;;;;;10.41;70.44;99097.53;5003933;28;20274;-79
2022/04/22 02:05:41;;;;;;;15.85;8.68;;;;;;;10.33;70.69;99096.19;5003891;28;20607;-78
2022/04/22 02:08:07;;;;;;;14.32;6.88;;;;;;;10.33;70.77;99094.28;4998977;28;20046;-79
2022/04/22 02:10:32;;;;;;;18.13;9.98;;;;;;;10.32;70.79;99089.94;4988112;28;20029;-79
2022/04/22 02:12:58;;;;;;;14.02;7.88;;;;;;;10.37;70.89;99089.91;5004437;28;20602;-78
2022/04/22 02:15:24;;;;;;;19.87;10.03;;;;;;;10.06;71.77;99091.94;5002343;28;20033;-78
2022/04/22 02:17:50;;;;;;;21.05;10.38;;;;;;;9.93;72.27;99094.97;5003454;28;20267;-79
2022/04/22 02:20:15;;;;;;;21.10;9.50;;;;;;;9.76;73.55;99089.84;5003197;28;20639;-79
2022/04/22 02:22:40;;;;;;;15.57;9.43;;;;;;;9.93;72.85;99094.97;5003322;28;20523;-79
2022/04/22 02:25:06;;;;;;;19.23;10.40;;;;;;;9.79;73.19;99091.19;5003892;28;20045;-79
2022/04/22 02:30:18;;;;;;;16.45;9.45;;;;;;;9.81;73.08;99086.28;5003550;28;20040;-78
2022/04/22 02:32:44;;;;;;;17.40;9.13;;;;;;;9.85;73.04;99098.25;4990763;28;20091;-79
2022/04/22 02:35:09;;;;;;;18.92;10.43;;;;;;;9.63;73.79;99088.53;4983472;28;20037;-79
2022/04/22 02:37:34;;;;;;;20.17;9.52;;;;;;;9.57;74.25;99098.59;4983893;28;20524;-78
2022/04/22 02:40:00;;;;;;;16.23;9.77;;;;;;;9.65;74.19;99094.50;4983639;28;20030;-77
2022/04/22 02:45:27;;;;;;;24.05;13.40;;;;;;;9.76;73.89;99083.59;5003097;28;20567;-79
2022/04/22 02:47:54;;;;;;;20.02;10.85;;;;;;;9.79;73.57;99088.47;5003280;28;20120;-78
2022/04/22 02:53:04;;;;;;;16.20;9.52;;;;;;;10.00;73.14;99085.69;4982966;28;20396;-78
2022/04/22 02:55:29;;;;;;;17.75;8.73;;;;;;;9.98;72.37;99085.16;4983735;28;20445;-79
2022/04/22 02:57:55;;;;;;;20.67;12.10;;;;;;;9.81;73.29;99081.66;4983649;28;20022;-79
2022/04/22 03:00:20;;;;;;;18.73;9.98;;;;;;;9.74;74.10;99083.06;4983808;28;20453;-78
2022/04/22 03:02:45;;;;;;;18.50;8.70;;;;;;;9.82;73.37;99085.22;4982273;28;20300;-78
2022/04/22 03:05:11;;;;;;;18.60;10.60;;;;;;;9.38;75.07;99084.72;4983846;28;20462;-78
2022/04/22 03:07:37;;;;;;;15.65;9.40;;;;;;;9.55;74.77;99091.78;4994228;28;20448;-78
2022/04/22 03:10:04;;;;;;;21.10;9.57;;;;;;;9.36;75.17;99091.56;5002510;28;20088;-78
2022/04/22 03:12:29;;;;;;;19.00;9.73;;;;;;;9.50;75.09;99078.22;5026351;28;20033;-79
2022/04/22 03:14:56;;;;;;;21.50;9.97;;;;;;;9.57;74.39;99078.72;5028903;28;20044;-78
2022/04/22 03:17:21;;;;;;;17.63;10.18;;;;;;;9.58;74.40;99072.19;5029409;28;20309;-78
2022/04/22 03:19:47;;;;;;;19.58;9.98;;;;;;;9.65;74.13;99067.28;5029517;28;20479;-78
2022/04/22 03:22:12;;;;;;;16.13;8.98;;;;;;;9.65;74.45;99064.56;5018924;28;20036;-78
2022/04/22 03:24:37;;;;;;;18.35;11.02;;;;;;;9.56;74.69;99074.38;5029001;28;20472;-78
2022/04/22 03:27:03;;;;;;;18.20;10.37;;;;;;;9.61;74.27;99073.53;5011395;28;20036;-78
2022/04/22 03:29:28;;;;;;;22.45;11.23;;;;;;;9.76;73.84;99070.78;5029068;28;20680;-79
2022/04/22 03:31:54;;;;;;;15.43;9.77;;;;;;;9.51;74.35;99069.75;5012925;28;20033;-78
2022/04/22 03:34:19;;;;;;;20.70;10.82;;;;;;;9.57;74.40;99065.94;5010126;28;20030;-79
2022/04/22 03:36:44;;;;;;;19.73;10.35;;;;;;;9.54;74.79;99069.19;5009418;28;20412;-78
2022/04/22 03:39:10;;;;;;;25.80;12.40;;;;;;;9.48;74.80;99061.34;5009566;28;20116;-78
2022/04/22 03:41:37;;;;;;;22.60;11.30;;;;;;;9.30;75.58;99060.78;5008818;28;20772;-79
2022/04/22 03:44:02;;;;;;;19.70;11.07;;;;;;;9.40;75.39;99049.91;5024305;28;20080;-79
2022/04/22 03:46:30;;;;;;;16.20;9.30;;;;;;;9.32;75.82;99074.94;5008282;28;20030;-78
2022/04/22 03:48:56;;;;;;;23.88;13.02;;;;;;;9.28;76.06;99073.84;5009597;28;20314;-78
2022/04/22 03:51:21;;;;;;;22.00;12.45;;;;;;;9.01;76.60;99075.75;5008951;28;20125;-79
2022/04/22 03:53:47;;;;;;;24.23;12.68;;;;;;;9.06;77.05;99077.66;5009309;28;20932;-79
2022/04/22 03:58:57;;;;;;;20.17;10.73;;;;;;;9.12;77.05;99082.03;5009773;28;20037;-79
2022/04/22 04:01:22;;;;;;;21.65;12.50;;;;;;;9.04;76.48;99082.56;5008206;28;20042;-78
2022/04/22 04:03:48;;;;;;;18.40;11.40;;;;;;;9.03;77.33;99068.16;5008728;28;20038;-79
2022/04/22 04:06:13;;;;;;;19.43;12.13;;;;;;;9.04;77.12;99080.66;5008825;28;20282;-77
2022/04/22 04:08:38;;;;;;;22.50;11.93;;;;;;;9.06;76.91;99073.06;5009023;28;20299;-79
2022/04/22 04:16:51;;;;;;;16.13;10.63;;;;;;;9.36;76.05;99070.59;4928239;29;20186;-77
2022/04/22 04:24:45;;;;;;;25.63;12.98;;;;;;;9.20;76.54;99072.50;4983700;28;20037;-79
2022/04/22 04:27:10;;;;;;;20.13;11.00;;;;;;;9.20;76.80;99067.88;5025396;28;20021;-78
2022/04/22 04:29:36;;;;;;;19.97;11.47;;;;;;;9.12;77.24;99063.00;5025175;28;20028;-78
2022/04/22 04:32:01;;;;;;;23.60;11.82;;;;;;;9.14;77.47;99063.53;5007887;28;20263;-79
2022/04/22 04:34:26;;;;;;;25.00;12.60;;;;;;;9.08;77.46;99064.63;5005434;28;20031;-80
2022/04/22 04:36:51;;;;;;;18.20;10.13;;;;;;;9.18;77.13;99059.19;5005203;28;20256;-78
2022/04/22 04:39:17;;;;;;;18.93;12.67;;;;;;;9.26;76.99;99054.28;5004718;28;20034;-79
2022/04/22 04:41:42;;;;;;;18.87;11.73;;;;;;;9.20;76.88;99062.44;5007306;28;20259;-77
2022/04/22 04:44:07;;;;;;;18.95;10.63;;;;;;;9.36;76.62;99058.91;5006409;28;20639;-77
2022/04/22 04:46:48;;;;;;;24.25;13.05;;;;;;;9.17;77.32;99057.53;5006265;28;20057;-78
2022/04/22 04:49:13;;;;;;;25.10;13.25;;;;;;;9.34;77.06;99056.44;5006643;28;20022;-77
2022/04/22 04:51:38;;;;;;;25.97;12.03;;;;;;;9.38;76.93;99048.53;5006108;28;20092;-79
2022/04/22 04:54:04;;;;;;;22.60;13.30;;;;;;;9.38;76.83;99046.66;5005995;28;20275;-79
2022/04/22 04:56:29;;;;;;;23.00;13.10;;;;;;;9.16;77.65;99055.91;5007026;28;20295;-77
2022/04/22 04:58:54;;;;;;;24.13;13.17;;;;;;;9.29;77.06;99049.13;5006407;28;20404;-77
2022/04/22 05:01:19;;;;;;;23.50;12.47;;;;;;;9.55;76.47;99051.81;5015310;28;20275;-79
2022/04/22 05:03:45;;;;;;;21.03;11.60;;;;;;;9.62;75.70;99043.31;5006036;28;20731;-77
2022/04/22 05:06:12;;;;;;;24.63;13.53;;;;;;;9.50;76.58;99048.28;5006092;28;20275;-79
2022/04/22 05:08:37;;;;;;;23.48;13.38;;;;;;;9.68;76.15;99055.84;5005733;28;20279;-77
2022/04/22 05:11:03;;;;;;;21.80;13.10;;;;;;;9.71;75.62;99049.03;5013600;28;20045;-79
2022/04/22 05:13:28;;;;;;;26.80;13.80;;;;;;;9.55;76.93;99042.81;5025938;28;20275;-80
2022/04/22 05:15:55;;;;;;;22.88;13.70;;;;;;;9.59;77.13;99046.63;5025468;28;20042;-79
2022/04/22 05:18:21;;;;;;;25.65;13.75;;;;;;;9.56;77.08;99041.72;5025737;28;20033;-77
2022/04/22 05:20:48;;;;;;;23.48;12.70;;;;;;;9.73;76.65;99041.41;5025270;28;20033;-78
2022/04/22 05:23:13;;;;;;;24.67;13.55;;;;;;;9.67;76.94;99043.34;5025414;28;20033;-78
2022/04/22 05:25:39;;;;;;;26.17;13.60;;;;;;;9.77;76.41;99047.09;5025148;28;20565;-78
2022/04/22 05:28:07;;;;;;;28.85;13.15;;;;;;;9.88;76.37;99037.81;5025379;28;20032;-79
2022/04/22 05:33:17;;;;;;;;;;;;;;;9.76;76.75;99040.03;5006190;28;20120;-79
2022/04/22 05:35:45;;;;;;;28.77;15.63;;;;;;;9.91;77.01;99047.31;5004813;28;19944;-78
2022/04/22 05:38:10;;;;;;;25.30;14.95;;;;;;;9.97;76.83;99050.84;5005131;28;20823;-78
2022/04/22 05:40:38;;;;;;;24.40;14.38;;;;;;;10.08;76.45;99040.72;5004430;28;20029;-78
2022/04/22 05:43:06;;;;;;;21.15;14.27;;;;;;;10.06;76.19;99046.47;5005769;28;20032;-78
2022/04/22 05:45:32;;;;;;;26.40;15.60;;;;;;;9.91;77.30;99045.44;5005080;28;20533;-79
2022/04/22 05:47:58;;;;;;;31.77;14.73;;;;;;;9.72;78.45;99045.22;5005413;28;20249;-77
2022/04/22 05:50:25;;;;;;;28.38;13.35;;;;;;;9.96;77.40;99044.59;5003910;28;20568;-76
2022/04/22 05:52:50;;;;;;;28.13;16.08;;;;;;;10.12;76.50;99045.34;5004896;28;20580;-78
2022/04/22 05:55:21;;;;;;;35.80;17.58;;;;;;;9.91;77.34;99037.25;5005081;28;20045;-78
2022/04/22 05:57:48;;;;;;;24.73;14.70;;;;;;;9.96;77.33;99043.78;5005407;28;20053;-78
2022/04/22 06:00:15;;;;;;;28.38;14.80;;;;;;;9.93;77.61;99045.97;5003930;28;20083;-78
2022/04/22 06:02:42;;;;;;;22.30;15.38;;;;;;;10.10;77.34;99033.09;4997780;28;20660;-79
2022/04/22 06:05:09;;;;;;;31.10;16.98;;;;;;;9.96;77.77;99039.16;5004824;28;20025;-79
2022/04/22 06:07:35;;;;;;;27.42;14.77;;;;;;;10.14;76.99;99032.28;5003785;28;20132;-79
2022/04/22 06:12:46;;;;;;;22.77;13.57;;;;;;;10.33;75.99;99034.31;5003816;28;20072;-76
2022/04/22 06:15:11;;;;;;;23.17;13.43;;;;;;;10.28;76.11;99020.75;5004256;28;20033;-77
2022/04/22 06:17:36;;;;;;;22.87;13.37;;;;;;;10.28;76.52;99026.19;5003550;28;20700;-77
2022/04/22 06:20:02;;;;;;;27.70;14.63;;;;;;;10.14;76.93;99018.66;4985563;28;20558;-79
2022/04/22 06:22:28;;;;;;;18.92;11.25;;;;;;;10.19;76.60;99025.16;5023400;28;20784;-78
2022/04/22 06:24:55;;;;;;;20.10;11.38;;;;;;;10.35;75.63;99029.41;5023219;28;20041;-77
2022/04/22 06:27:25;;;;;;;22.38;11.98;;;;;;;10.48;75.96;99013.53;5023179;28;20541;-79
2022/04/22 06:29:52;;;;;;;22.17;12.77;;;;;;;10.56;75.65;99006.69;5022900;28;20025;-78
2022/04/22 06:32:18;;;;;;;25.98;13.85;;;;;;;10.68;74.95;99014.56;5013408;28;20591;-79
2022/04/22 06:34:43;;;;;;;27.42;14.88;;;;;;;10.83;74.34;99013.59;5002962;28;20037;-85
2022/04/22 06:37:24;;;;;;;35.78;15.38;;;;;;;10.86;74.38;99008.38;5004859;28;20532;-78
2022/04/22 06:48:03;;;;;;;16.20;10.15;;;;;;;11.13;72.86;98999.97;5022370;28;20048;-79
2022/04/22 06:50:29;;;;;;;20.20;11.25;;;;;;;11.14;73.19;98993.44;5021504;28;20486;-79
2022/04/22 06:52:54;;;;;;;17.27;10.50;;;;;;;11.11;72.93;98994.00;5015789;28;20125;-79
2022/04/22 06:55:20;;;;;;;20.52;11.82;;;;;;;10.89;73.73;99000.72;5004312;28;20052;-79
2022/04/22 06:57:49;;;;;;;19.40;10.25;;;;;;;10.97;73.44;99005.56;5004028;28;20125;-78
2022/04/22 07:00:15;;;;;;;20.20;10.93;;;;;;;11.12;72.63;98996.47;5004816;28;20117;-79
2022/04/22 07:02:41;;;;;;;15.05;8.70;;;;;;;11.09;72.98;99000.56;5010531;28;20374;-79
2022/04/22 07:05:06;;;;;;;21.33;10.25;;;;;;;11.11;72.95;99004.91;5002450;28;20049;-79
2022/04/22 07:07:32;;;;;;;19.73;11.30;;;;;;;11.11;72.56;98999.44;5002639;28;20054;-80
2022/04/22 07:09:58;;;;;;;14.43;9.13;;;;;;;11.16;72.50;99000.25;5003173;28;20531;-79
2022/04/22 07:12:26;;;;;;;18.20;11.43;;;;;;;11.24;72.51;99000.69;5002283;28;20061;-80
2022/04/22 07:15:03;;;;;;;15.68;9.55;;;;;;;11.36;71.35;98994.84;5003207;28;20045;-80
2022/04/22 07:17:29;;;;;;;17.90;9.52;;;;;;;11.37;71.68;99001.94;5002707;28;20065;-80
2022/04/22 07:19:54;;;;;;;17.67;8.82;;;;;;;11.46;71.27;99005.66;5002907;28;20520;-80
2022/04/22 07:22:20;;;;;;;18.55;10.38;;;;;;;11.43;70.90;99011.72;5011011;28;20038;-80
2022/04/22 07:24:45;;;;;;;20.33;8.15;;;;;;;11.53;70.66;99014.31;5022985;28;20042;-80
2022/04/22 07:27:11;;;;;;;13.88;9.05;;;;;;;11.54;69.93;99006.94;5023033;28;20433;-79
2022/04/22 07:29:37;;;;;;;15.00;7.70;;;;;;;11.48;69.46;99006.19;5022536;28;20254;-80
2022/04/22 07:32:03;;;;;;;16.15;8.85;;;;;;;11.48;69.35;99000.72;5005080;28;20485;-80
2022/04/22 07:34:29;;;;;;;17.75;9.85;;;;;;;11.42;70.24;98999.16;5002491;28;20040;-79
2022/04/22 07:36:54;;;;;;;18.25;9.02;;;;;;;11.58;69.67;98998.97;5002138;28;20121;-79
2022/04/22 07:39:19;;;;;;;17.33;8.20;;;;;;;11.53;68.72;98983.50;5001608;28;20423;-79
2022/04/22 07:41:46;;;;;;;14.73;8.38;;;;;;;11.54;69.39;98985.91;5016188;28;20031;-78
2022/04/22 07:46:59;;;;;;;14.90;7.45;;;;;;;11.46;68.82;98989.28;5022140;28;20396;-79
2022/04/22 07:49:26;;;;;;;13.15;7.68;;;;;;;11.68;67.99;98996.97;5022877;28;20080;-79
2022/04/22 07:51:52;;;;;;;16.70;8.60;;;;;;;11.88;67.26;98986.88;5021869;28;20374;-80
2022/04/22 07:54:17;;;;;;;18.50;10.52;;;;;;;11.95;67.48;98994.72;5004216;28;20036;-80
2022/04/22 07:56:42;;;;;;;13.60;8.37;;;;;;;12.16;66.72;98993.69;5002826;28;20046;-78
2022/04/22 07:59:08;;;;;;;20.88;10.57;;;;;;;12.26;65.87;98997.06;5004112;28;20302;-79
2022/04/22 08:01:33;;;;;;;14.65;7.68;;;;;;;12.35;65.19;98990.94;5005298;28;20041;-77
2022/04/22 08:03:59;;;;;;;18.63;8.70;;;;;;;12.22;65.89;98987.84;5006205;28;20029;-79
2022/04/22 08:06:24;;;;;;;115.15;15.43;;;;;;;12.39;65.36;98991.97;5006544;28;20032;-78
2022/04/22 08:08:50;;;;;;;17.88;8.80;;;;;;;12.42;65.39;98990.56;5006327;28;20029;-80
2022/04/22 08:11:15;;;;;;;15.32;8.93;;;;;;;12.45;65.26;98987.22;5005637;28;20057;-79
2022/04/22 08:13:41;;;;;;;16.30;8.77;;;;;;;12.57;64.65;98990.31;5005824;28;20026;-79
2022/04/22 08:16:07;;;;;;;17.58;9.80;;;;;;;12.56;64.94;98990.63;5005615;28;20330;-80
2022/04/22 08:18:32;;;;;;;17.23;9.48;;;;;;;12.53;65.03;98985.78;5006064;28;20485;-79
2022/04/22 08:20:57;;;;;;;17.58;10.05;;;;;;;12.65;64.31;98980.63;5012836;28;20109;-80
2022/04/22 08:23:23;;;;;;;20.30;8.50;;;;;;;12.69;64.12;98981.66;5025650;28;20014;-78
2022/04/22 08:25:48;;;;;;;19.27;9.10;;;;;;;12.80;64.08;98978.75;5025220;28;20057;-80
2022/04/22 08:28:14;;;;;;;15.50;8.57;;;;;;;13.01;63.01;98984.72;5025586;28;20056;-81
2022/04/22 08:30:39;;;;;;;15.38;8.48;;;;;;;13.21;62.12;98977.25;5019939;28;20065;-80
2022/04/22 08:33:05;;;;;;;16.95;10.07;;;;;;;13.10;62.24;98987.56;5005696;28;20119;-80
2022/04/22 08:35:30;;;;;;;15.48;7.72;;;;;;;13.10;61.65;98982.09;5005721;28;20068;-80
2022/04/22 08:37:58;;;;;;;17.57;9.00;;;;;;;12.86;62.19;98985.78;5006160;28;20733;-80
2022/04/22 08:40:23;;;;;;;13.52;8.57;;;;;;;12.86;62.41;98988.50;5006547;28;21162;-79
2022/04/22 08:42:49;;;;;;;14.70;8.27;;;;;;;13.22;62.22;98981.59;5005371;28;20465;-80
2022/04/22 08:45:15;;;;;;;10.90;6.88;;;;;;;13.43;60.97;98978.47;5004974;28;20764;-80
2022/04/22 08:50:30;;;;;;;14.13;8.27;;;;;;;13.01;61.99;98979.25;5005241;28;20040;-79
2022/04/22 08:53:04;;;;;;;14.13;8.43;;;;;;;13.23;61.41;98985.16;5005248;28;20116;-80
2022/04/22 08:55:31;;;;;;;15.13;9.18;;;;;;;13.40;60.54;98973.63;5005420;28;20055;-80
2022/04/22 08:57:57;;;;;;;16.05;10.45;;;;;;;13.58;59.92;98974.69;5005395;28;20030;-81
2022/04/22 09:00:22;;;;;;;14.80;7.68;;;;;;;13.69;59.29;98969.78;5007306;28;20032;-81
2022/04/22 09:02:49;;;;;;;15.63;8.60;;;;;;;13.47;59.69;98973.22;5011816;28;20062;-80
2022/04/22 09:05:15;;;;;;;14.05;8.60;;;;;;;13.14;60.83;98979.59;5004058;28;20033;-80
2022/04/22 09:07:43;;;;;;;18.02;10.38;;;;;;;13.02;60.85;98974.56;5004495;28;20046;-80
2022/04/22 09:10:10;;;;;;;16.85;9.50;;;;;;;13.00;60.88;98976.78;5004609;28;20137;-79
2022/04/22 09:12:35;;;;;;;17.15;10.18;;;;;;;12.93;61.39;98978.00;5024413;28;20025;-80
2022/04/22 09:17:45;;;;;;;20.15;11.48;;;;;;;13.03;61.45;98977.03;5024161;28;20060;-80
2022/04/22 09:20:14;;;;;;;16.73;11.60;;;;;;;13.16;61.13;98966.41;5024472;28;20033;-80
2022/04/22 09:22:39;;;;;;;19.35;12.23;;;;;;;13.25;61.02;98972.78;5024329;28;20611;-80
2022/04/22 09:25:08;;;;;;;20.75;9.02;;;;;;;13.42;59.86;98955.75;5024395;28;20136;-79
2022/04/22 09:27:44;;;;;;;17.90;12.60;;;;;;;13.28;60.57;98960.44;5024765;28;20036;-81
2022/04/22 09:30:11;;;;;;;16.70;10.07;;;;;;;13.37;59.74;98952.31;5022079;28;20037;-80
2022/04/22 09:32:40;;;;;;;20.45;12.43;;;;;;;13.60;59.44;98953.28;5012643;28;20401;-80
2022/04/22 09:35:12;;;;;;;19.10;10.52;;;;;;;13.42;59.90;98944.81;5004158;28;20554;-79
2022/04/22 09:43:22;;;;;;;13.93;8.90;;;;;;;13.28;59.80;98946.75;5024211;28;20475;-80
2022/04/22 09:45:51;;;;;;;17.15;10.77;;;;;;;13.17;60.01;98946.94;5023673;28;20021;-82
2022/04/22 09:48:23;;;;;;;16.15;10.95;;;;;;;13.03;60.47;98948.84;5023642;28;20041;-80
2022/04/22 09:50:56;;;;;;;19.38;10.48;;;;;;;13.07;59.94;98941.66;5005615;28;20500;-80
2022/04/22 09:53:35;;;;;;;19.45;9.65;;;;;;;13.19;60.06;98939.25;5012873;28;20026;-81
2022/04/22 09:56:08;;;;;;;14.68;8.77;;;;;;;13.38;59.57;98938.31;5004100;28;20053;-82
2022/04/22 09:58:35;;;;;;;16.92;9.27;;;;;;;13.66;58.32;98940.28;5004014;28;20026;-81
2022/04/22 10:01:06;;;;;;;14.95;8.75;;;;;;;13.50;59.01;98935.09;5011222;28;20500;-81
2022/04/22 10:03:33;;;;;;;15.07;9.30;;;;;;;13.73;58.58;98928.94;5005299;28;20022;-82
2022/04/22 10:06:01;;;;;;;17.00;8.52;;;;;;;13.68;58.44;98918.06;5004424;28;20109;-82
2022/04/22 10:08:28;;;;;;;12.90;7.38;;;;;;;13.62;58.11;98926.41;5004121;28;20472;-80
2022/04/22 10:10:58;;;;;;;11.65;7.32;;;;;;;13.49;57.99;98927.97;5010610;28;20439;-80
2022/04/22 10:13:26;;;;;;;14.65;8.45;;;;;;;13.51;58.38;98919.47;5023537;28;20032;-81
2022/04/22 10:15:52;;;;;;;10.07;6.25;;;;;;;13.76;57.81;98925.56;5023959;28;20073;-81
2022/04/22 10:18:18;;;;;;;14.82;6.88;;;;;;;13.80;57.66;98920.28;5023773;28;20519;-80
2022/04/22 10:20:44;;;;;;;14.57;9.15;;;;;;;13.96;56.64;98913.34;5017197;28;20084;-79
2022/04/22 10:23:10;;;;;;;9.98;5.97;;;;;;;13.95;57.08;98908.19;5018688;28;20040;-78
2022/04/22 10:25:35;;;;;;;14.13;7.70;;;;;;;14.56;55.50;98904.28;5023097;28;20025;-81
2022/04/22 10:28:04;;;;;;;10.00;7.25;;;;;;;14.34;56.00;98906.72;5023326;28;20026;-80
2022/04/22 10:30:31;;;;;;;11.50;7.32;;;;;;;14.38;55.49;98903.38;5022675;28;20116;-80
2022/04/22 10:32:57;;;;;;;12.93;7.13;;;;;;;15.00;54.40;98906.50;5008893;28;20481;-80
2022/04/22 10:35:23;;;;;;;10.25;5.32;;;;;;;15.18;53.52;98904.63;5003116;28;20030;-79
2022/04/22 10:37:50;;;;;;;9.95;5.95;;;;;;;15.36;52.91;98896.44;5004529;28;20018;-80
2022/04/22 10:40:24;;;;;;;11.90;6.60;;;;;;;15.27;52.61;98897.25;4986383;28;20518;-81
2022/04/22 10:42:51;;;;;;;9.15;5.40;;;;;;;15.18;52.32;98899.13;5003687;28;20036;-79
2022/04/22 10:48:21;;;;;;;10.10;5.88;;;;;;;15.37;52.02;98881.59;5003226;28;20503;-79
2022/04/22 10:51:00;;;;;;;13.95;5.45;;;;;;;15.20;52.65;98891.41;5002678;28;20171;-80
2022/04/22 10:53:27;;;;;;;9.35;5.32;;;;;;;15.43;51.94;98885.81;5003145;28;20118;-78
2022/04/22 10:55:53;;;;;;;9.95;5.28;;;;;;;15.27;52.13;98899.19;5002798;28;20364;-79
2022/04/22 10:58:20;;;;;;;8.68;4.68;;;;;;;15.37;52.08;98889.84;5003239;28;20116;-80
2022/04/22 11:00:59;;;;;;;11.23;6.97;;;;;;;15.45;52.10;98885.50;5008502;28;20039;-79
2022/04/22 11:03:29;;;;;;;11.43;6.63;;;;;;;15.65;51.55;98889.56;5004900;28;20033;-80
2022/04/22 11:05:57;;;;;;;8.50;4.72;;;;;;;15.58;52.35;98889.25;5003478;28;20096;-80
2022/04/22 11:08:25;;;;;;;10.90;5.50;;;;;;;15.98;51.80;98882.81;5002574;28;20417;-80
2022/04/22 11:10:51;;;;;;;11.82;6.85;;;;;;;15.82;52.01;98888.00;5007388;28;20076;-80
2022/04/22 11:13:46;;;;;;;15.00;8.80;;;;;;;14.90;55.13;98888.38;5022623;28;20469;-80
2022/04/22 11:16:14;;;;;;;16.20;8.80;;;;;;;15.17;54.01;98886.56;5021046;28;20052;-80
2022/04/22 11:18:41;;;;;;;15.40;8.82;;;;;;;15.31;54.54;98880.94;5012676;28;20116;-79
2022/04/22 11:21:17;;;;;;;18.83;10.07;;;;;;;15.12;54.98;98887.50;5010642;28;20037;-78
2022/04/22 11:23:46;;;;;;;14.18;8.70;;;;;;;15.23;55.04;98878.97;5001594;28;20052;-79
2022/04/22 11:26:14;;;;;;;15.23;8.90;;;;;;;15.11;55.15;98879.59;5001918;28;20080;-80
2022/04/22 11:28:40;;;;;;;14.75;8.82;;;;;;;15.13;54.74;98875.38;5003163;28;20052;-80
2022/04/22 11:31:08;;;;;;;16.75;9.73;;;;;;;15.87;53.20;98874.09;5002191;28;20107;-79
2022/04/22 11:33:51;;;;;;;13.55;8.32;;;;;;;16.35;52.09;98866.03;5005093;28;20030;-81
2022/04/22 11:36:16;;;;;;;13.48;7.40;;;;;;;16.35;51.37;98879.78;5004881;28;20482;-81
2022/04/22 11:38:49;;;;;;;15.93;9.60;;;;;;;15.91;52.92;98868.75;5006374;28;20022;-80
2022/04/22 11:41:16;;;;;;;11.68;7.15;;;;;;;16.25;51.34;98875.41;5003936;28;20262;-80
2022/04/22 11:43:41;;;;;;;11.85;8.73;;;;;;;16.03;51.91;98879.16;5005238;28;20042;-80
2022/04/22 11:46:07;;;;;;;16.45;8.73;;;;;;;15.85;52.49;98866.16;5005167;28;20044;-80
2022/04/22 11:48:32;;;;;;;16.60;8.82;;;;;;;15.53;53.78;98865.47;5005519;28;20358;-79
2022/04/22 11:51:01;;;;;;;14.25;9.65;;;;;;;15.57;53.40;98865.66;5007449;28;20026;-80
2022/04/22 11:53:29;;;;;;;15.32;7.85;;;;;;;15.70;52.78;98864.69;5005360;28;20030;-80
2022/04/22 11:55:54;;;;;;;13.40;7.25;;;;;;;15.66;52.67;98866.47;4988055;28;20446;-79
2022/04/22 11:58:23;;;;;;;11.90;7.50;;;;;;;16.47;50.90;98856.28;5005784;28;20017;-79
2022/04/22 12:06:19;;;;;;;20.10;7.90;;;;;;;16.69;50.66;98856.06;5005170;28;20153;-79
2022/04/22 12:08:51;;;;;;;11.68;7.28;;;;;;;16.60;51.09;98854.50;5006323;28;20018;-80
2022/04/22 12:11:17;;;;;;;13.50;7.88;;;;;;;16.62;50.41;98854.97;5006056;28;20056;-79
2022/04/22 12:13:42;;;;;;;13.90;7.70;;;;;;;16.27;52.57;98842.09;5006380;28;20392;-79
2022/04/22 12:16:07;;;;;;;17.45;9.57;;;;;;;15.91;52.75;98863.25;5005343;28;20048;-79
2022/04/22 12:18:36;;;;;;;15.90;9.23;;;;;;;16.25;51.89;98855.34;5003488;28;20018;-78
2022/04/22 12:21:06;;;;;;;18.50;8.52;;;;;;;16.10;52.08;98860.22;4989123;28;20290;-79
2022/04/22 12:23:35;;;;;;;14.13;8.95;;;;;;;15.75;53.21;98858.22;5005122;28;20582;-78
2022/04/22 12:26:01;;;;;;;13.98;8.77;;;;;;;15.52;53.15;98847.38;5005430;28;20026;-80